Time;durP1;ratioP1;P1;durP2;ratioP2;P2;SDS_P1;SDS_P2;PMS_P1;PMS_P2;Temp;Humidity;BMP_temperature;BMP_pressure;BME280_temperature;BME280_humidity;BME280_pressure;Samples;Min_cycle;Max_cycle;Signal;HPM_P1;HPM_P2
2023/03/10 00:02:25;;;;;;;7.53;2.78;;;;;;;;;;5016475;28;20113;-65
2023/03/10 00:04:52;;;;;;;6.72;2.85;;;;;;;;;;5016970;28;20037;-67
2023/03/10 00:07:19;;;;;;;8.02;1.95;;;;;;;;;;5017916;28;20414;-66
2023/03/10 00:09:46;;;;;;;4.32;2.13;;;;;;;;;;5015620;28;20832;-71
2023/03/10 00:12:12;;;;;;;8.70;3.17;;;;;;;;;;5015331;28;21472;-67
2023/03/10 00:14:39;;;;;;;7.43;2.72;;;;;;;;;;5014685;28;20046;-66
2023/03/10 00:17:06;;;;;;;8.43;3.03;;;;;;;;;;5017156;28;20041;-65
2023/03/10 00:19:32;;;;;;;10.88;3.78;;;;;;;;;;5034585;28;20498;-66
2023/03/10 00:22:01;;;;;;;10.45;3.60;;;;;;;;;;5034589;28;20041;-66
2023/03/10 00:24:28;;;;;;;10.93;3.22;;;;;;;;;;5033878;28;20036;-66
2023/03/10 00:26:54;;;;;;;9.27;3.15;;;;;;;;;;5034189;28;20056;-66
2023/03/10 00:29:21;;;;;;;5.93;2.42;;;;;;;;;;5035899;28;20854;-66
2023/03/10 00:31:47;;;;;;;4.82;2.47;;;;;;;;;;5034706;28;20041;-65
2023/03/10 00:34:14;;;;;;;4.68;1.75;;;;;;;;;;5013364;28;20081;-64
2023/03/10 00:36:41;;;;;;;9.65;3.63;;;;;;;;;;5034840;28;20068;-66
2023/03/10 00:39:07;;;;;;;5.93;3.08;;;;;;;;;;5035711;28;20565;-65
2023/03/10 00:41:37;;;;;;;7.20;2.80;;;;;;;;;;5034048;28;20036;-66
2023/03/10 00:44:05;;;;;;;8.68;2.63;;;;;;;;;;5035163;28;20041;-66
2023/03/10 00:46:37;;;;;;;8.27;2.60;;;;;;;;;;5035272;28;20041;-67
2023/03/10 00:49:04;;;;;;;5.15;2.50;;;;;;;;;;5035813;28;20106;-68
2023/03/10 00:51:31;;;;;;;7.80;2.67;;;;;;;;;;5033528;28;20048;-66
2023/03/10 00:53:59;;;;;;;6.85;2.83;;;;;;;;;;5035988;28;20037;-68
2023/03/10 00:56:26;;;;;;;5.78;2.47;;;;;;;;;;5010859;28;20045;-64
2023/03/10 00:58:54;;;;;;;6.38;2.95;;;;;;;;;;5035563;28;20051;-66
2023/03/10 01:01:22;;;;;;;7.53;2.72;;;;;;;;;;5034533;28;20484;-66
2023/03/10 01:04:13;;;;;;;11.68;3.78;;;;;;;;;;4963925;28;20066;-66
2023/03/10 01:06:41;;;;;;;7.40;2.70;;;;;;;;;;4963699;28;20054;-66
2023/03/10 01:09:07;;;;;;;7.32;3.17;;;;;;;;;;4965829;28;20918;-65
2023/03/10 01:11:34;;;;;;;5.03;2.72;;;;;;;;;;4963080;28;20252;-65
2023/03/10 01:14:02;;;;;;;12.30;3.13;;;;;;;;;;4963170;28;20105;-66
2023/03/10 01:16:29;;;;;;;16.90;2.53;;;;;;;;;;4963235;28;20058;-66
2023/03/10 01:18:56;;;;;;;7.28;2.75;;;;;;;;;;4964765;28;20057;-66
2023/03/10 01:21:24;;;;;;;12.05;3.60;;;;;;;;;;4962065;28;20078;-66
2023/03/10 01:23:51;;;;;;;5.43;2.42;;;;;;;;;;4965192;28;20042;-65
2023/03/10 01:26:18;;;;;;;10.88;3.78;;;;;;;;;;4966084;28;20068;-65
2023/03/10 01:28:45;;;;;;;5.85;2.67;;;;;;;;;;4966489;28;20227;-66
2023/03/10 01:31:12;;;;;;;6.45;2.03;;;;;;;;;;4968521;28;20057;-66
2023/03/10 01:33:39;;;;;;;7.97;2.67;;;;;;;;;;4971241;28;20042;-65
2023/03/10 01:36:09;;;;;;;18.50;2.90;;;;;;;;;;4973039;28;20157;-66
2023/03/10 01:38:37;;;;;;;6.88;1.92;;;;;;;;;;4974194;28;20070;-65
2023/03/10 01:41:04;;;;;;;10.77;3.10;;;;;;;;;;4992145;28;20100;-65
2023/03/10 01:43:37;;;;;;;5.75;2.58;;;;;;;;;;5024360;28;20048;-66
2023/03/10 01:46:04;;;;;;;8.60;2.90;;;;;;;;;;5041653;28;20044;-66
2023/03/10 01:48:33;;;;;;;5.88;2.55;;;;;;;;;;5039079;28;20044;-66
2023/03/10 01:51:00;;;;;;;3.53;1.70;;;;;;;;;;5039476;28;20086;-66
2023/03/10 01:53:28;;;;;;;8.15;3.63;;;;;;;;;;5038861;28;20573;-65
2023/03/10 01:55:56;;;;;;;7.43;2.72;;;;;;;;;;5039596;28;20091;-66
2023/03/10 01:58:24;;;;;;;4.10;2.05;;;;;;;;;;5040111;28;20029;-65
2023/03/10 02:00:52;;;;;;;9.50;3.38;;;;;;;;;;5040485;28;20039;-65
2023/03/10 02:03:37;;;;;;;3.95;2.10;;;;;;;;;;5043243;28;20124;-65
2023/03/10 02:06:08;;;;;;;4.13;1.75;;;;;;;;;;5041162;28;20066;-65
2023/03/10 02:08:38;;;;;;;7.68;3.67;;;;;;;;;;5042324;28;20441;-65
2023/03/10 02:11:06;;;;;;;5.47;2.75;;;;;;;;;;5042039;28;20071;-66
2023/03/10 02:13:32;;;;;;;5.20;2.13;;;;;;;;;;5040115;28;20037;-65
2023/03/10 02:15:59;;;;;;;8.65;2.70;;;;;;;;;;5039573;28;20144;-66
2023/03/10 02:18:26;;;;;;;6.03;2.38;;;;;;;;;;5037805;28;20049;-65
2023/03/10 02:21:03;;;;;;;6.72;3.00;;;;;;;;;;5038990;28;20892;-65
2023/03/10 02:23:52;;;;;;;5.45;2.30;;;;;;;;;;5029992;28;20390;-67
2023/03/10 02:26:26;;;;;;;3.17;1.63;;;;;;;;;;5036915;28;20044;-66
2023/03/10 02:28:53;;;;;;;5.10;2.38;;;;;;;;;;5038938;28;20420;-66
2023/03/10 02:31:22;;;;;;;5.80;2.90;;;;;;;;;;5026771;28;20040;-68
2023/03/10 02:33:50;;;;;;;2.63;1.38;;;;;;;;;;5022220;28;20037;-64
2023/03/10 02:36:18;;;;;;;4.30;1.83;;;;;;;;;;5039599;28;20087;-66
2023/03/10 02:38:45;;;;;;;5.55;2.25;;;;;;;;;;5038306;28;21108;-64
2023/03/10 02:41:31;;;;;;;15.93;2.15;;;;;;;;;;5037364;28;20037;-64
2023/03/10 02:44:00;;;;;;;5.65;2.90;;;;;;;;;;5038859;28;20812;-63
2023/03/10 02:46:27;;;;;;;4.45;2.65;;;;;;;;;;5001329;28;20198;-68
2023/03/10 02:48:54;;;;;;;3.60;2.13;;;;;;;;;;5001770;28;20059;-66
2023/03/10 02:51:26;;;;;;;5.38;3.15;;;;;;;;;;5015513;28;20044;-68
2023/03/10 02:53:52;;;;;;;9.52;3.30;;;;;;;;;;5018991;28;20048;-67
2023/03/10 02:56:19;;;;;;;5.88;2.38;;;;;;;;;;5015938;28;20114;-70
2023/03/10 02:58:46;;;;;;;7.22;2.88;;;;;;;;;;5017420;28;20052;-66
2023/03/10 03:01:12;;;;;;;3.53;2.03;;;;;;;;;;5018206;28;20049;-66
2023/03/10 03:03:39;;;;;;;8.63;3.95;;;;;;;;;;5010925;28;20297;-65
2023/03/10 03:06:06;;;;;;;3.42;1.55;;;;;;;;;;5030454;28;20433;-66
2023/03/10 03:08:33;;;;;;;7.28;2.63;;;;;;;;;;5018410;28;20029;-67
2023/03/10 03:11:00;;;;;;;11.20;3.03;;;;;;;;;;5015300;28;20041;-66
2023/03/10 03:13:26;;;;;;;5.75;2.67;;;;;;;;;;5014387;28;20386;-68
2023/03/10 03:15:53;;;;;;;4.70;1.80;;;;;;;;;;5015626;28;20522;-67
2023/03/10 03:18:20;;;;;;;4.22;2.88;;;;;;;;;;5016554;28;21152;-68
2023/03/10 03:20:46;;;;;;;8.93;3.00;;;;;;;;;;5013780;28;20045;-66
2023/03/10 03:23:13;;;;;;;7.00;2.92;;;;;;;;;;5017052;28;20045;-67
2023/03/10 03:25:41;;;;;;;9.30;3.60;;;;;;;;;;5015844;28;20202;-67
2023/03/10 03:28:09;;;;;;;5.72;2.88;;;;;;;;;;5016035;28;20034;-67
2023/03/10 03:30:36;;;;;;;5.47;2.55;;;;;;;;;;5010021;28;20049;-65
2023/03/10 03:33:04;;;;;;;5.00;2.08;;;;;;;;;;5015465;28;20060;-67
2023/03/10 03:35:32;;;;;;;5.20;2.70;;;;;;;;;;5016562;28;20119;-66
2023/03/10 03:37:58;;;;;;;6.93;2.70;;;;;;;;;;5015655;28;20100;-67
2023/03/10 03:40:26;;;;;;;20.10;2.83;;;;;;;;;;5026379;28;20488;-67
2023/03/10 03:42:53;;;;;;;11.68;2.83;;;;;;;;;;5019711;28;20088;-65
2023/03/10 03:45:25;;;;;;;3.72;2.38;;;;;;;;;;5034988;28;20437;-63
2023/03/10 03:47:51;;;;;;;4.28;2.40;;;;;;;;;;5036053;28;20041;-66
2023/03/10 03:50:19;;;;;;;8.27;2.08;;;;;;;;;;5047625;28;20037;-65
2023/03/10 03:52:46;;;;;;;6.50;3.03;;;;;;;;;;5041422;28;20114;-66
2023/03/10 03:55:14;;;;;;;6.97;2.28;;;;;;;;;;5037966;28;20103;-66
2023/03/10 03:57:41;;;;;;;4.57;2.33;;;;;;;;;;5035317;28;20049;-64
2023/03/10 04:00:10;;;;;;;6.57;3.42;;;;;;;;;;5023879;28;20033;-64
2023/03/10 04:02:37;;;;;;;8.63;3.85;;;;;;;;;;5016156;28;20045;-64
2023/03/10 04:05:04;;;;;;;3.30;1.75;;;;;;;;;;5021121;28;20124;-64
2023/03/10 04:07:31;;;;;;;6.43;3.35;;;;;;;;;;5019901;28;20038;-66
2023/03/10 04:09:57;;;;;;;4.85;2.65;;;;;;;;;;5019378;28;21535;-66
2023/03/10 04:12:26;;;;;;;3.13;2.10;;;;;;;;;;5015653;28;20049;-65
2023/03/10 04:14:52;;;;;;;5.88;2.30;;;;;;;;;;5014064;28;20769;-65
2023/03/10 04:17:19;;;;;;;6.72;2.17;;;;;;;;;;5012278;28;20065;-69
2023/03/10 04:19:46;;;;;;;3.47;1.90;;;;;;;;;;5015388;28;20057;-64
2023/03/10 04:22:12;;;;;;;5.90;3.35;;;;;;;;;;5012469;28;20717;-66
2023/03/10 04:24:39;;;;;;;5.15;2.97;;;;;;;;;;5013251;28;20103;-63
2023/03/10 04:27:08;;;;;;;4.45;2.38;;;;;;;;;;5013451;28;20144;-65
2023/03/10 04:29:36;;;;;;;5.82;2.60;;;;;;;;;;5015278;28;20088;-65
2023/03/10 04:32:03;;;;;;;2.67;1.83;;;;;;;;;;5014092;28;20034;-66
2023/03/10 04:34:30;;;;;;;6.07;2.17;;;;;;;;;;5014711;28;20041;-64
2023/03/10 04:36:57;;;;;;;5.95;3.28;;;;;;;;;;5015312;28;20045;-65
2023/03/10 04:39:23;;;;;;;6.35;3.10;;;;;;;;;;5014774;28;20115;-66
2023/03/10 04:41:50;;;;;;;4.60;2.42;;;;;;;;;;5013821;28;20790;-64
2023/03/10 04:44:17;;;;;;;9.93;3.00;;;;;;;;;;5014953;28;20042;-67
2023/03/10 04:46:43;;;;;;;6.03;2.45;;;;;;;;;;5014972;28;20076;-64
2023/03/10 04:49:10;;;;;;;3.75;2.08;;;;;;;;;;5019527;28;20123;-66
2023/03/10 04:51:38;;;;;;;8.55;4.03;;;;;;;;;;5015347;28;20052;-66
2023/03/10 04:54:05;;;;;;;10.15;3.30;;;;;;;;;;5014170;28;20068;-68
2023/03/10 04:56:31;;;;;;;5.88;3.72;;;;;;;;;;5013819;28;20069;-65
2023/03/10 04:59:20;;;;;;;4.38;2.78;;;;;;;;;;5008863;28;20471;-65
2023/03/10 05:01:47;;;;;;;16.27;3.92;;;;;;;;;;5009880;28;20052;-71
2023/03/10 05:04:13;;;;;;;9.90;3.78;;;;;;;;;;5010458;28;20041;-66
2023/03/10 05:06:40;;;;;;;5.38;2.97;;;;;;;;;;5010739;28;20042;-64
2023/03/10 05:09:07;;;;;;;5.70;3.33;;;;;;;;;;5011295;28;20045;-67
2023/03/10 05:11:33;;;;;;;6.97;3.67;;;;;;;;;;5011597;28;20057;-66
2023/03/10 05:14:00;;;;;;;8.85;2.78;;;;;;;;;;4998820;28;20526;-66
2023/03/10 05:16:27;;;;;;;11.70;3.28;;;;;;;;;;4998023;28;20100;-68
2023/03/10 05:19:13;;;;;;;10.02;3.42;;;;;;;;;;4974432;28;20245;-67
2023/03/10 05:21:40;;;;;;;4.43;2.20;;;;;;;;;;4972665;28;20065;-67
2023/03/10 05:24:26;;;;;;;7.00;4.07;;;;;;;;;;4924107;28;20166;-67
2023/03/10 05:26:53;;;;;;;3.08;1.60;;;;;;;;;;4933186;28;20051;-68
2023/03/10 05:29:20;;;;;;;5.72;2.60;;;;;;;;;;4936832;28;20139;-66
2023/03/10 05:31:47;;;;;;;3.05;1.83;;;;;;;;;;4935123;28;20143;-68
2023/03/10 05:34:13;;;;;;;2.95;1.60;;;;;;;;;;4932281;28;20044;-66
2023/03/10 05:36:40;;;;;;;5.50;2.58;;;;;;;;;;4941764;28;20534;-69
2023/03/10 05:39:08;;;;;;;6.10;3.25;;;;;;;;;;4960823;28;20588;-66
2023/03/10 05:41:36;;;;;;;5.38;2.67;;;;;;;;;;4958072;28;20577;-66
2023/03/10 05:44:02;;;;;;;5.45;2.58;;;;;;;;;;4953256;28;20181;-66
2023/03/10 05:46:29;;;;;;;5.50;3.30;;;;;;;;;;4956672;28;20108;-67
2023/03/10 05:48:56;;;;;;;14.68;3.25;;;;;;;;;;4960816;28;20634;-66
2023/03/10 05:51:23;;;;;;;2.10;1.58;;;;;;;;;;4957243;28;20515;-67
2023/03/10 05:53:50;;;;;;;9.93;3.92;;;;;;;;;;4960417;28;20035;-67
2023/03/10 05:56:17;;;;;;;4.28;2.70;;;;;;;;;;4964952;28;20510;-65
2023/03/10 05:58:45;;;;;;;5.32;2.30;;;;;;;;;;4995562;28;20049;-67
2023/03/10 06:01:12;;;;;;;8.05;2.70;;;;;;;;;;5001676;28;20045;-67
2023/03/10 06:03:38;;;;;;;22.70;3.63;;;;;;;;;;5017325;28;21879;-67
2023/03/10 06:06:06;;;;;;;5.72;2.92;;;;;;;;;;5012076;28;20056;-65
2023/03/10 06:08:33;;;;;;;6.55;2.50;;;;;;;;;;5027568;28;20053;-67
2023/03/10 06:10:59;;;;;;;2.63;1.65;;;;;;;;;;5017626;28;20517;-68
2023/03/10 06:13:26;;;;;;;6.18;2.92;;;;;;;;;;5013998;28;20099;-67
2023/03/10 06:15:54;;;;;;;4.88;3.00;;;;;;;;;;5011581;28;20186;-68
2023/03/10 06:18:21;;;;;;;5.38;2.35;;;;;;;;;;5028048;28;20045;-67
2023/03/10 06:20:48;;;;;;;9.48;3.63;;;;;;;;;;5014660;28;20059;-67
2023/03/10 06:23:15;;;;;;;7.30;3.03;;;;;;;;;;5016310;28;20065;-67
2023/03/10 06:25:42;;;;;;;4.38;2.67;;;;;;;;;;5017473;28;20179;-66
2023/03/10 06:28:09;;;;;;;5.70;2.50;;;;;;;;;;5015460;28;20125;-65
2023/03/10 06:30:36;;;;;;;8.18;3.42;;;;;;;;;;5015411;28;20537;-67
2023/03/10 06:33:02;;;;;;;5.82;2.95;;;;;;;;;;5016656;28;20043;-66
2023/03/10 06:35:29;;;;;;;3.95;2.90;;;;;;;;;;5015254;28;20049;-65
2023/03/10 06:37:55;;;;;;;6.43;3.17;;;;;;;;;;5017606;28;20033;-66
2023/03/10 06:40:22;;;;;;;9.35;3.45;;;;;;;;;;5015791;28;20164;-66
2023/03/10 06:42:49;;;;;;;19.30;3.88;;;;;;;;;;5016569;28;20521;-66
2023/03/10 06:45:16;;;;;;;7.07;2.75;;;;;;;;;;5016684;28;20937;-68
2023/03/10 06:47:44;;;;;;;4.85;2.70;;;;;;;;;;5016119;28;20053;-69
2023/03/10 06:50:11;;;;;;;10.60;4.10;;;;;;;;;;5017749;28;20049;-67
2023/03/10 06:52:37;;;;;;;9.68;4.00;;;;;;;;;;5014701;28;20065;-68
2023/03/10 06:55:04;;;;;;;4.80;2.90;;;;;;;;;;5016805;28;20041;-65
2023/03/10 06:57:31;;;;;;;6.85;2.67;;;;;;;;;;5010699;28;20042;-65
2023/03/10 06:59:57;;;;;;;6.28;3.25;;;;;;;;;;5015067;28;20045;-65
2023/03/10 07:02:24;;;;;;;12.45;3.65;;;;;;;;;;5014818;28;20065;-64
2023/03/10 07:04:51;;;;;;;8.40;3.80;;;;;;;;;;5014272;28;20033;-67
2023/03/10 07:07:17;;;;;;;5.57;3.22;;;;;;;;;;5016695;28;20044;-65
2023/03/10 07:09:45;;;;;;;5.22;2.55;;;;;;;;;;5015448;28;20111;-67
2023/03/10 07:12:11;;;;;;;6.95;3.53;;;;;;;;;;5015236;28;20554;-65
2023/03/10 07:14:38;;;;;;;6.18;3.30;;;;;;;;;;5014408;28;20052;-66
2023/03/10 07:17:05;;;;;;;5.63;3.22;;;;;;;;;;5015653;28;20044;-66
2023/03/10 07:19:32;;;;;;;7.28;3.15;;;;;;;;;;5030228;28;20041;-68
2023/03/10 07:21:58;;;;;;;3.40;1.92;;;;;;;;;;5015151;28;20317;-66
2023/03/10 07:24:25;;;;;;;11.73;3.88;;;;;;;;;;5014883;28;20037;-66
2023/03/10 07:26:51;;;;;;;5.80;3.35;;;;;;;;;;5016378;28;20515;-66
2023/03/10 07:29:18;;;;;;;7.05;3.13;;;;;;;;;;5015386;28;20124;-67
2023/03/10 07:31:45;;;;;;;8.90;3.35;;;;;;;;;;5023470;28;20387;-68
2023/03/10 07:34:12;;;;;;;7.85;2.92;;;;;;;;;;5031819;28;20099;-66
2023/03/10 07:36:38;;;;;;;5.60;3.08;;;;;;;;;;5006350;28;20107;-65
2023/03/10 07:39:05;;;;;;;8.80;4.18;;;;;;;;;;5022606;28;20041;-65
2023/03/10 07:41:31;;;;;;;5.28;3.10;;;;;;;;;;5006698;28;20049;-64
2023/03/10 07:43:58;;;;;;;10.15;3.22;;;;;;;;;;5015406;28;20037;-66
2023/03/10 07:46:25;;;;;;;5.78;3.45;;;;;;;;;;5014332;28;20038;-66
2023/03/10 07:48:52;;;;;;;7.45;3.15;;;;;;;;;;5015832;28;20036;-65
2023/03/10 07:51:19;;;;;;;5.10;2.95;;;;;;;;;;5013833;28;20799;-67
2023/03/10 07:53:46;;;;;;;9.15;4.43;;;;;;;;;;5015402;28;20076;-65
2023/03/10 07:56:13;;;;;;;3.58;2.35;;;;;;;;;;5014837;28;20045;-65
2023/03/10 07:58:40;;;;;;;5.85;2.83;;;;;;;;;;5014608;28;20059;-64
2023/03/10 08:01:07;;;;;;;4.97;1.95;;;;;;;;;;5013408;28;20068;-65
2023/03/10 08:03:34;;;;;;;11.70;4.07;;;;;;;;;;5014802;28;20034;-66
2023/03/10 08:06:04;;;;;;;4.78;2.45;;;;;;;;;;5016254;28;20045;-67
2023/03/10 08:08:30;;;;;;;11.20;4.88;;;;;;;;;;5013510;28;20037;-64
2023/03/10 08:11:02;;;;;;;5.68;3.03;;;;;;;;;;5014995;28;20663;-65
2023/03/10 08:13:29;;;;;;;8.07;3.40;;;;;;;;;;5014002;28;20520;-65
2023/03/10 08:15:57;;;;;;;6.85;3.63;;;;;;;;;;5015556;28;20052;-66
2023/03/10 08:18:25;;;;;;;8.95;4.28;;;;;;;;;;5015334;28;20395;-69
2023/03/10 08:20:51;;;;;;;11.27;5.28;;;;;;;;;;5014708;28;20130;-67
2023/03/10 08:23:18;;;;;;;10.88;4.35;;;;;;;;;;5011678;28;20029;-65
2023/03/10 08:25:44;;;;;;;7.57;4.00;;;;;;;;;;5014504;28;20120;-65
2023/03/10 08:28:11;;;;;;;9.30;4.38;;;;;;;;;;5015364;28;20127;-68
2023/03/10 08:30:38;;;;;;;4.97;3.15;;;;;;;;;;5028986;28;20125;-65
2023/03/10 08:33:08;;;;;;;9.45;3.85;;;;;;;;;;5015211;28;20048;-65
2023/03/10 08:35:36;;;;;;;5.97;3.15;;;;;;;;;;5014693;28;20494;-65
2023/03/10 08:38:03;;;;;;;7.28;3.03;;;;;;;;;;5018184;28;20609;-65
2023/03/10 08:40:30;;;;;;;8.02;5.00;;;;;;;;;;5017025;28;20516;-65
2023/03/10 08:42:57;;;;;;;6.22;4.18;;;;;;;;;;5018745;28;20056;-65
2023/03/10 08:45:23;;;;;;;5.15;2.60;;;;;;;;;;5017900;28;20516;-66
2023/03/10 08:47:50;;;;;;;4.65;2.75;;;;;;;;;;5019372;28;20049;-66
2023/03/10 08:50:17;;;;;;;10.20;4.18;;;;;;;;;;5018316;28;21690;-65
2023/03/10 08:52:43;;;;;;;6.45;3.90;;;;;;;;;;5018075;28;20041;-64
2023/03/10 08:55:10;;;;;;;6.35;3.72;;;;;;;;;;5019518;28;20051;-66
2023/03/10 08:57:37;;;;;;;10.68;5.78;;;;;;;;;;5017334;28;20045;-65
2023/03/10 09:00:05;;;;;;;4.55;2.90;;;;;;;;;;5018518;28;20034;-64
2023/03/10 09:02:32;;;;;;;8.40;2.92;;;;;;;;;;5018034;28;20057;-64
2023/03/10 09:04:59;;;;;;;11.40;6.30;;;;;;;;;;5019221;28;20045;-65
2023/03/10 09:07:25;;;;;;;7.03;3.70;;;;;;;;;;5017509;28;20498;-66
2023/03/10 09:09:52;;;;;;;8.35;4.63;;;;;;;;;;5018000;28;20710;-65
2023/03/10 09:12:19;;;;;;;9.30;4.13;;;;;;;;;;5017537;28;20156;-65
2023/03/10 09:14:46;;;;;;;10.10;4.13;;;;;;;;;;5017463;28;20052;-65
2023/03/10 09:17:12;;;;;;;9.68;3.40;;;;;;;;;;5018713;28;20110;-66
2023/03/10 09:19:39;;;;;;;7.68;3.42;;;;;;;;;;5017498;28;20735;-63
2023/03/10 09:22:05;;;;;;;4.60;3.53;;;;;;;;;;5018082;28;20041;-66
2023/03/10 09:24:32;;;;;;;6.07;2.88;;;;;;;;;;5017879;28;20091;-65
2023/03/10 09:26:59;;;;;;;4.50;2.75;;;;;;;;;;5017167;28;20816;-65
2023/03/10 09:29:25;;;;;;;8.85;4.10;;;;;;;;;;5016071;28;20502;-66
2023/03/10 09:31:52;;;;;;;5.22;2.75;;;;;;;;;;5018509;28;20619;-65
2023/03/10 09:34:19;;;;;;;3.78;2.63;;;;;;;;;;5017682;28;20064;-64
2023/03/10 09:36:46;;;;;;;5.18;2.95;;;;;;;;;;5017549;28;20041;-66
2023/03/10 09:39:12;;;;;;;6.80;3.80;;;;;;;;;;5018940;28;20029;-66
2023/03/10 09:41:58;;;;;;;9.60;5.15;;;;;;;;;;5016627;28;20100;-64
2023/03/10 09:44:25;;;;;;;6.13;3.72;;;;;;;;;;5017233;28;20033;-65
2023/03/10 09:47:18;;;;;;;4.55;3.58;;;;;;;;;;5018582;28;20037;-65
2023/03/10 09:49:45;;;;;;;4.45;3.10;;;;;;;;;;5018058;28;20482;-65
2023/03/10 09:52:26;;;;;;;6.95;3.05;;;;;;;;;;5018608;28;20049;-67
2023/03/10 09:55:13;;;;;;;6.70;2.78;;;;;;;;;;5029914;28;20151;-65
2023/03/10 09:57:40;;;;;;;7.20;4.32;;;;;;;;;;5025118;28;20091;-65
2023/03/10 10:00:16;;;;;;;24.95;5.38;;;;;;;;;;5017157;28;20091;-66
2023/03/10 10:02:45;;;;;;;4.35;1.95;;;;;;;;;;5017307;28;20033;-65
2023/03/10 10:05:32;;;;;;;8.88;2.58;;;;;;;;;;5017601;28;20558;-65
2023/03/10 10:08:00;;;;;;;6.68;4.10;;;;;;;;;;5017782;28;20034;-65
2023/03/10 10:10:28;;;;;;;4.78;3.80;;;;;;;;;;5018883;28;20077;-65
2023/03/10 10:12:56;;;;;;;6.82;4.30;;;;;;;;;;5019280;28;20041;-65
2023/03/10 10:15:24;;;;;;;5.40;3.25;;;;;;;;;;5016925;28;20187;-65
2023/03/10 10:17:56;;;;;;;21.20;5.40;;;;;;;;;;5018407;28;20065;-66
2023/03/10 10:20:27;;;;;;;10.02;2.95;;;;;;;;;;5016434;28;20041;-66
2023/03/10 10:22:54;;;;;;;12.52;3.65;;;;;;;;;;5017437;28;20060;-66
2023/03/10 10:25:22;;;;;;;14.98;2.97;;;;;;;;;;5017668;28;20033;-66
2023/03/10 10:27:51;;;;;;;8.63;3.72;;;;;;;;;;5017233;28;20044;-65
2023/03/10 10:30:29;;;;;;;6.63;3.20;;;;;;;;;;5015531;28;20141;-66
2023/03/10 10:32:57;;;;;;;10.27;4.05;;;;;;;;;;5031248;28;20045;-65
2023/03/10 10:35:25;;;;;;;7.85;2.95;;;;;;;;;;5017528;28;20053;-66
2023/03/10 10:37:59;;;;;;;8.55;5.35;;;;;;;;;;5018115;28;22160;-66
2023/03/10 10:40:26;;;;;;;10.30;3.50;;;;;;;;;;5015996;28;20045;-66
2023/03/10 10:43:04;;;;;;;8.43;4.22;;;;;;;;;;5016988;28;20502;-67
2023/03/10 10:45:36;;;;;;;8.32;3.75;;;;;;;;;;5017151;28;20141;-66
2023/03/10 10:48:02;;;;;;;31.38;5.43;;;;;;;;;;5016304;28;20049;-67
2023/03/10 10:50:30;;;;;;;11.88;6.30;;;;;;;;;;5015132;28;20033;-67
2023/03/10 10:53:17;;;;;;;14.82;5.93;;;;;;;;;;5017075;28;20056;-67
2023/03/10 10:55:44;;;;;;;17.38;5.43;;;;;;;;;;5018862;28;20553;-67
2023/03/10 10:58:31;;;;;;;4.70;2.97;;;;;;;;;;5028511;28;20049;-67
2023/03/10 11:01:00;;;;;;;10.85;2.65;;;;;;;;;;4999894;28;20046;-67
2023/03/10 11:03:27;;;;;;;13.38;4.80;;;;;;;;;;5026625;28;20041;-66
2023/03/10 11:05:53;;;;;;;15.05;5.60;;;;;;;;;;5005254;28;20548;-67
2023/03/10 11:08:26;;;;;;;34.58;7.70;;;;;;;;;;5019506;28;21717;-68
2023/03/10 11:11:13;;;;;;;8.45;5.22;;;;;;;;;;5018601;28;20037;-67
2023/03/10 11:13:43;;;;;;;6.82;4.10;;;;;;;;;;4986062;28;20037;-67
2023/03/10 11:16:20;;;;;;;9.10;5.82;;;;;;;;;;5038077;28;20450;-67
2023/03/10 11:18:52;;;;;;;8.68;6.03;;;;;;;;;;5028781;28;20083;-68
2023/03/10 11:21:25;;;;;;;11.50;6.18;;;;;;;;;;5026958;28;20033;-67
2023/03/10 11:24:11;;;;;;;12.13;4.35;;;;;;;;;;5019234;28;20051;-67
2023/03/10 11:26:37;;;;;;;17.45;5.28;;;;;;;;;;5026779;28;20409;-66
2023/03/10 11:29:21;;;;;;;12.20;6.35;;;;;;;;;;5034266;28;20048;-67
2023/03/10 11:32:06;;;;;;;10.23;5.65;;;;;;;;;;5036516;28;20071;-67
2023/03/10 11:34:35;;;;;;;12.70;6.78;;;;;;;;;;5036474;28;20033;-66
2023/03/10 11:37:08;;;;;;;4.40;3.47;;;;;;;;;;5037220;28;20409;-66
2023/03/10 11:39:47;;;;;;;10.50;6.35;;;;;;;;;;5034828;28;20071;-66
2023/03/10 11:42:25;;;;;;;18.25;7.22;;;;;;;;;;5035843;28;20057;-66
2023/03/10 11:44:57;;;;;;;8.05;4.50;;;;;;;;;;5035227;28;20051;-65
2023/03/10 11:47:42;;;;;;;11.35;6.28;;;;;;;;;;5035605;28;20064;-66
2023/03/10 11:50:15;;;;;;;29.15;8.00;;;;;;;;;;5034741;28;20087;-64
2023/03/10 11:52:42;;;;;;;11.03;4.53;;;;;;;;;;5035234;28;20051;-66
2023/03/10 11:55:16;;;;;;;11.38;5.28;;;;;;;;;;5035226;28;20309;-66
2023/03/10 11:57:45;;;;;;;11.40;7.45;;;;;;;;;;5035281;28;20056;-66
2023/03/10 12:00:19;;;;;;;10.10;4.03;;;;;;;;;;5034560;28;20041;-66
2023/03/10 12:03:01;;;;;;;8.70;5.05;;;;;;;;;;5034720;28;20041;-66
2023/03/10 12:05:32;;;;;;;5.05;3.78;;;;;;;;;;5035611;28;20064;-65
2023/03/10 12:08:00;;;;;;;15.88;4.88;;;;;;;;;;5035934;28;20060;-67
2023/03/10 12:10:28;;;;;;;9.02;5.05;;;;;;;;;;5033778;28;20128;-66
2023/03/10 12:12:55;;;;;;;8.50;4.63;;;;;;;;;;5036583;28;20041;-66
2023/03/10 12:15:32;;;;;;;16.00;5.93;;;;;;;;;;5034400;28;20398;-67
2023/03/10 12:17:59;;;;;;;9.18;6.68;;;;;;;;;;5036119;28;20048;-68
2023/03/10 12:20:28;;;;;;;16.92;7.75;;;;;;;;;;5034149;28;20131;-67
2023/03/10 12:22:56;;;;;;;17.15;6.32;;;;;;;;;;5036278;28;20040;-66
2023/03/10 12:25:28;;;;;;;12.73;4.93;;;;;;;;;;5034364;28;20041;-67
2023/03/10 12:28:13;;;;;;;11.80;4.47;;;;;;;;;;5034971;28;20048;-66
2023/03/10 12:30:55;;;;;;;18.33;5.70;;;;;;;;;;5034698;28;20060;-68
2023/03/10 12:33:36;;;;;;;19.80;5.88;;;;;;;;;;5035730;28;20037;-66
2023/03/10 12:36:39;;;;;;;21.70;5.75;;;;;;;;;;5035411;28;20056;-66
2023/03/10 12:39:11;;;;;;;19.75;5.82;;;;;;;;;;4928933;28;20562;-67
2023/03/10 12:41:46;;;;;;;3.60;3.00;;;;;;;;;;5013066;28;24386;-68
2023/03/10 12:44:31;;;;;;;9.75;6.30;;;;;;;;;;5034745;28;20040;-67
2023/03/10 12:47:12;;;;;;;12.35;7.50;;;;;;;;;;5035440;28;20045;-67
2023/03/10 12:49:42;;;;;;;14.25;6.55;;;;;;;;;;5012829;28;20037;-67
2023/03/10 12:52:14;;;;;;;28.27;10.05;;;;;;;;;;5035441;28;20133;-67
2023/03/10 12:54:59;;;;;;;12.68;6.50;;;;;;;;;;5035368;28;20049;-67
2023/03/10 12:57:29;;;;;;;17.15;8.90;;;;;;;;;;5034876;28;20041;-67
2023/03/10 13:00:14;;;;;;;18.88;7.20;;;;;;;;;;5035048;28;20098;-66
2023/03/10 13:03:17;;;;;;;22.08;6.13;;;;;;;;;;5035603;28;20205;-66
2023/03/10 13:06:02;;;;;;;12.95;7.43;;;;;;;;;;4936599;28;20055;-66
2023/03/10 13:08:31;;;;;;;9.00;4.93;;;;;;;;;;5017190;28;20033;-67
2023/03/10 13:10:59;;;;;;;7.75;4.28;;;;;;;;;;5024099;28;20046;-66
2023/03/10 13:13:34;;;;;;;28.15;7.63;;;;;;;;;;5022130;28;20410;-68
2023/03/10 13:16:02;;;;;;;16.88;6.50;;;;;;;;;;5019639;28;20057;-63
2023/03/10 13:18:29;;;;;;;11.80;7.03;;;;;;;;;;5015100;28;20203;-64
2023/03/10 13:21:00;;;;;;;16.23;6.07;;;;;;;;;;5013298;28;20045;-66
2023/03/10 13:23:34;;;;;;;12.68;6.45;;;;;;;;;;5001047;28;21684;-66
2023/03/10 13:26:02;;;;;;;35.33;8.70;;;;;;;;;;5017986;28;20041;-67
2023/03/10 13:28:30;;;;;;;13.02;7.30;;;;;;;;;;5014509;28;20813;-65
2023/03/10 13:31:26;;;;;;;13.73;7.43;;;;;;;;;;5017328;28;20046;-67
2023/03/10 13:33:54;;;;;;;16.00;7.18;;;;;;;;;;4996767;28;21389;-65
2023/03/10 13:36:21;;;;;;;23.10;7.32;;;;;;;;;;5019894;28;20298;-67
2023/03/10 13:38:48;;;;;;;30.27;6.57;;;;;;;;;;5027057;28;20041;-68
2023/03/10 13:41:15;;;;;;;6.63;5.10;;;;;;;;;;5037673;28;20042;-66
2023/03/10 13:43:43;;;;;;;19.80;5.90;;;;;;;;;;5026235;28;20144;-67
2023/03/10 13:46:22;;;;;;;44.35;7.38;;;;;;;;;;5024385;28;20517;-68
2023/03/10 13:48:49;;;;;;;63.92;6.45;;;;;;;;;;5023054;28;20041;-67
2023/03/10 13:51:18;;;;;;;12.73;4.45;;;;;;;;;;5022428;28;20522;-68
2023/03/10 13:53:46;;;;;;;22.02;4.35;;;;;;;;;;5034867;28;20040;-67
2023/03/10 13:56:27;;;;;;;16.48;5.55;;;;;;;;;;5033463;28;20049;-64
2023/03/10 13:58:57;;;;;;;8.77;3.42;;;;;;;;;;5024072;28;20041;-67
2023/03/10 14:01:28;;;;;;;11.88;4.13;;;;;;;;;;5042432;28;20036;-67
2023/03/10 14:03:54;;;;;;;12.43;5.63;;;;;;;;;;5043777;28;20041;-65
2023/03/10 14:06:21;;;;;;;10.68;6.68;;;;;;;;;;5043127;28;20036;-66
2023/03/10 14:08:49;;;;;;;13.52;6.45;;;;;;;;;;5038096;28;20034;-68
2023/03/10 14:11:31;;;;;;;31.27;7.68;;;;;;;;;;5021527;28;20030;-64
2023/03/10 14:13:59;;;;;;;20.83;6.93;;;;;;;;;;5026450;28;20060;-66
2023/03/10 14:16:44;;;;;;;7.65;5.20;;;;;;;;;;5024506;28;20080;-66
2023/03/10 14:19:11;;;;;;;15.68;6.38;;;;;;;;;;5039433;28;20056;-66
2023/03/10 14:21:40;;;;;;;10.65;5.50;;;;;;;;;;5040714;28;20051;-65
2023/03/10 14:24:15;;;;;;;13.80;5.82;;;;;;;;;;5041051;28;20067;-65
2023/03/10 14:26:43;;;;;;;15.27;6.85;;;;;;;;;;5039844;28;20041;-65
2023/03/10 14:29:13;;;;;;;10.13;5.78;;;;;;;;;;5038418;28;21870;-66
2023/03/10 14:31:39;;;;;;;8.65;5.47;;;;;;;;;;5038771;28;20105;-65
2023/03/10 14:34:06;;;;;;;12.45;7.82;;;;;;;;;;5038182;28;20269;-66
2023/03/10 14:36:33;;;;;;;13.70;5.93;;;;;;;;;;5039301;28;20055;-65
2023/03/10 14:38:59;;;;;;;13.80;6.70;;;;;;;;;;5038000;28;20094;-66
2023/03/10 14:41:26;;;;;;;21.05;6.45;;;;;;;;;;5037175;28;20474;-67
2023/03/10 14:43:52;;;;;;;12.30;6.10;;;;;;;;;;5039967;28;20072;-66
2023/03/10 14:46:19;;;;;;;9.38;4.40;;;;;;;;;;5039884;28;20405;-67
2023/03/10 14:48:46;;;;;;;14.13;6.40;;;;;;;;;;5038384;28;20055;-66
2023/03/10 14:51:14;;;;;;;8.20;4.88;;;;;;;;;;5037872;28;20094;-66
2023/03/10 14:53:40;;;;;;;11.82;5.35;;;;;;;;;;5016197;28;20055;-65